Time;durP1;ratioP1;P1;durP2;ratioP2;P2;SDS_P1;SDS_P2;PMS_P1;PMS_P2;Temp;Humidity;BMP_temperature;BMP_pressure;BME280_temperature;BME280_humidity;BME280_pressure;Samples;Min_cycle;Max_cycle;Signal;HPM_P1;HPM_P2
2021/05/24 00:00:34;;;;;;;1.22;0.80;;;;;;;8.89;93.42;93192.34;1853973;76;21583;-81
2021/05/24 00:03:00;;;;;;;2.02;1.02;;;;;;;8.95;93.72;93192.70;1865583;76;21020;-83
2021/05/24 00:05:30;;;;;;;2.80;1.15;;;;;;;8.99;93.38;93189.44;1849284;77;21155;-81
2021/05/24 00:07:57;;;;;;;1.25;0.80;;;;;;;9.02;93.05;93198.70;1849070;77;21008;-81
2021/05/24 00:10:26;;;;;;;2.02;0.80;;;;;;;9.03;93.02;93202.41;1859944;76;21507;-82
2021/05/24 00:13:00;;;;;;;1.80;0.82;;;;;;;9.02;92.82;93194.64;1866508;75;20960;-83
2021/05/24 00:15:38;;;;;;;2.83;1.25;;;;;;;9.00;92.70;93200.47;1863218;76;20985;-82
2021/05/24 00:18:05;;;;;;;3.12;0.75;;;;;;;8.97;92.73;93210.73;1848782;76;21068;-83
2021/05/24 00:20:37;;;;;;;1.10;0.80;;;;;;;8.92;92.66;93213.84;1847723;76;21122;-82
2021/05/24 00:23:05;;;;;;;1.77;0.65;;;;;;;8.88;92.81;93212.49;1862934;75;21064;-81
2021/05/24 00:25:33;;;;;;;1.65;0.85;;;;;;;8.87;92.98;93216.93;1865275;75;21047;-82
2021/05/24 00:28:00;;;;;;;1.00;0.80;;;;;;;8.82;92.96;93215.39;1858847;76;21120;-84
2021/05/24 00:30:32;;;;;;;1.85;0.80;;;;;;;8.81;93.11;93221.98;1850329;75;21036;-82
2021/05/24 00:32:57;;;;;;;5.45;2.02;;;;;;;8.82;93.31;93233.59;1848055;76;21562;-82
2021/05/24 00:35:24;;;;;;;4.85;2.02;;;;;;;8.83;93.22;93232.43;1859090;77;21072;-80
2021/05/24 00:37:50;;;;;;;4.62;2.02;;;;;;;8.81;93.17;93236.89;1830813;77;21605;-81
2021/05/24 00:40:18;;;;;;;3.10;1.37;;;;;;;8.79;93.13;93233.02;1850183;76;21064;-80
2021/05/24 00:42:45;;;;;;;1.47;1.30;;;;;;;8.74;93.07;93234.95;1866340;76;21158;-80
2021/05/24 00:45:13;;;;;;;1.57;0.80;;;;;;;8.68;93.37;93234.36;1864575;76;21040;-81
2021/05/24 00:47:39;;;;;;;1.10;0.78;;;;;;;8.62;93.44;93242.13;1847927;77;21082;-83
2021/05/24 00:50:08;;;;;;;0.80;0.80;;;;;;;8.58;93.52;93243.28;1847307;77;21052;-81
2021/05/24 00:52:34;;;;;;;1.47;0.68;;;;;;;8.56;93.72;93248.30;1857512;76;21582;-82
2021/05/24 00:55:02;;;;;;;0.70;0.50;;;;;;;8.56;93.70;93253.14;1865240;76;21040;-81
2021/05/24 00:57:28;;;;;;;1.85;1.07;;;;;;;8.58;93.55;93258.19;1863715;76;21682;-80
2021/05/24 00:59:55;;;;;;;0.55;0.40;;;;;;;8.59;93.61;93255.67;1848464;77;21028;-80
2021/05/24 01:02:21;;;;;;;0.50;0.50;;;;;;;8.58;93.63;93254.90;1848295;77;21020;-81
2021/05/24 01:04:48;;;;;;;1.57;0.80;;;;;;;8.62;93.85;93263.03;1860282;76;21955;-81
2021/05/24 01:07:15;;;;;;;2.08;1.45;;;;;;;8.64;93.60;93268.24;1859707;76;21103;-82
2021/05/24 01:09:41;;;;;;;0.50;0.40;;;;;;;8.63;93.40;93271.35;1849125;75;21147;-82
2021/05/24 01:12:09;;;;;;;0.30;0.30;;;;;;;8.61;93.29;93279.85;1849289;77;21044;-83
2021/05/24 01:14:36;;;;;;;4.08;1.27;;;;;;;8.60;93.14;93282.38;1865735;76;21088;-82
2021/05/24 01:17:03;;;;;;;1.60;0.62;;;;;;;8.59;93.07;93282.77;1866377;75;21504;-80
2021/05/24 01:19:31;;;;;;;0.90;0.50;;;;;;;8.60;92.88;93283.73;1858224;76;20996;-83
2021/05/24 01:21:57;;;;;;;1.92;0.95;;;;;;;8.59;92.97;93294.97;1849154;75;21044;-81
2021/05/24 01:24:23;;;;;;;0.93;0.53;;;;;;;8.56;92.94;93301.16;1849596;76;21082;-81
2021/05/24 01:26:50;;;;;;;1.20;0.45;;;;;;;8.53;92.77;93313.53;1866762;76;21048;-81
2021/05/24 01:29:19;;;;;;;1.75;0.40;;;;;;;8.53;92.73;93310.05;1867021;75;21033;-81
2021/05/24 01:31:48;;;;;;;1.15;0.20;;;;;;;8.48;92.52;93318.75;1856673;76;21107;-82
2021/05/24 01:34:14;;;;;;;0.40;0.20;;;;;;;8.44;92.56;93319.91;1849016;75;21047;-81
2021/05/24 01:36:41;;;;;;;1.57;0.37;;;;;;;8.41;92.42;93323.38;1851018;76;21589;-83
2021/05/24 01:39:07;;;;;;;0.25;0.20;;;;;;;8.39;92.64;93334.61;1866633;76;21107;-82
2021/05/24 01:41:34;;;;;;;2.02;0.40;;;;;;;8.37;92.58;93329.34;1865488;76;21625;-81
2021/05/24 01:44:01;;;;;;;1.72;0.82;;;;;;;8.34;92.59;93334.94;1866338;76;21057;-82
2021/05/24 01:46:27;;;;;;;1.60;0.80;;;;;;;8.31;92.62;93328.92;1859483;76;21036;-81
2021/05/24 01:48:55;;;;;;;0.85;0.33;;;;;;;8.32;92.83;93335.91;1848503;76;21709;-82
2021/05/24 01:51:21;;;;;;;0.40;0.30;;;;;;;8.35;92.94;93336.50;1848375;77;21039;-81
2021/05/24 01:53:48;;;;;;;0.62;0.37;;;;;;;8.38;92.90;93351.23;1865506;76;21035;-83
2021/05/24 01:56:14;;;;;;;0.78;0.23;;;;;;;8.38;93.20;93363.42;1854654;76;21674;-81
2021/05/24 01:58:40;;;;;;;0.85;0.30;;;;;;;8.35;93.28;93367.66;1849705;75;20988;-82
2021/05/24 02:01:09;;;;;;;0.30;0.28;;;;;;;8.35;93.44;93369.57;1852893;75;21115;-82
2021/05/24 02:03:36;;;;;;;0.30;0.30;;;;;;;8.34;93.40;93368.03;1866186;76;21077;-83
2021/05/24 02:06:04;;;;;;;0.70;0.20;;;;;;;8.30;93.44;93374.78;1828850;78;21137;-81
2021/05/24 02:08:32;;;;;;;0.10;0.10;;;;;;;8.31;93.40;93383.11;1843864;76;21107;-80
2021/05/24 02:11:00;;;;;;;0.75;0.15;;;;;;;8.31;93.31;93384.45;1857242;76;21075;-82
2021/05/24 02:13:28;;;;;;;0.10;0.10;;;;;;;8.32;93.53;93382.55;1865135;76;21092;-82
2021/05/24 02:15:56;;;;;;;0.20;0.10;;;;;;;8.34;93.33;93395.89;1864731;76;21064;-81
2021/05/24 02:18:23;;;;;;;0.42;0.20;;;;;;;8.32;93.10;93399.58;1865655;76;21141;-82
2021/05/24 02:20:50;;;;;;;1.20;0.17;;;;;;;8.27;92.88;93409.41;1851508;76;20948;-81
2021/05/24 02:23:16;;;;;;;0.30;0.10;;;;;;;8.23;92.98;93410.74;1854950;75;21584;-83
2021/05/24 02:25:43;;;;;;;0.10;0.10;;;;;;;8.20;92.86;93402.05;1853323;76;21043;-79
2021/05/24 02:28:10;;;;;;;0.53;0.15;;;;;;;8.16;92.92;93410.73;1850761;76;21151;-82
2021/05/24 02:30:38;;;;;;;0.95;0.20;;;;;;;8.16;93.23;93416.16;1865681;76;21342;-84
2021/05/24 02:33:05;;;;;;;0.10;0.10;;;;;;;8.16;93.09;93428.89;1865609;76;21633;-81
2021/05/24 02:35:32;;;;;;;0.50;0.40;;;;;;;8.13;93.05;93433.16;1865379;76;21107;-81
2021/05/24 02:37:58;;;;;;;1.20;0.20;;;;;;;8.11;92.99;93439.52;1857517;76;21983;-82
2021/05/24 02:40:25;;;;;;;1.17;0.17;;;;;;;8.13;92.95;93446.70;1848479;77;21059;-83
2021/05/24 02:42:52;;;;;;;0.23;0.20;;;;;;;8.12;92.74;93456.53;1849568;77;21039;-81
2021/05/24 02:45:19;;;;;;;0.20;0.20;;;;;;;8.11;92.34;93457.70;1869940;76;20973;-81
2021/05/24 02:47:46;;;;;;;0.40;0.23;;;;;;;8.09;92.42;93470.27;1844685;76;21004;-80
2021/05/24 02:50:18;;;;;;;0.20;0.20;;;;;;;8.11;92.36;93476.66;1849563;77;21597;-81
2021/05/24 02:52:46;;;;;;;0.25;0.23;;;;;;;8.12;92.34;93481.69;1853627;76;21055;-81
2021/05/24 02:55:13;;;;;;;0.20;0.20;;;;;;;8.13;92.31;93489.26;1864157;76;21600;-83
2021/05/24 02:57:39;;;;;;;0.85;0.57;;;;;;;8.14;92.39;93482.68;1849829;77;21107;-83
2021/05/24 03:00:09;;;;;;;1.57;0.93;;;;;;;8.12;92.29;93495.81;1849447;77;21064;-83
2021/05/24 03:02:44;;;;;;;2.25;0.90;;;;;;;8.12;92.12;93501.23;1861122;76;21056;-82
2021/05/24 03:05:04;;;;;;;16.90;7.55;;;;;;;8.12;92.19;93503.94;1857054;76;20945;-82
2021/05/24 03:07:30;;;;;;;7.92;5.45;;;;;;;8.10;91.94;93507.61;1849103;76;21068;-82
2021/05/24 03:09:58;;;;;;;5.15;1.70;;;;;;;8.08;91.94;93509.33;1849959;77;21091;-82
2021/05/24 03:12:25;;;;;;;4.08;3.00;;;;;;;8.06;91.31;93517.06;1866316;76;21594;-81
2021/05/24 03:14:51;;;;;;;2.00;1.20;;;;;;;8.06;91.44;93526.55;1853841;76;21000;-83
2021/05/24 03:17:18;;;;;;;0.85;0.60;;;;;;;8.09;91.85;93536.63;1849170;75;21106;-82
2021/05/24 03:19:45;;;;;;;2.17;0.72;;;;;;;8.11;91.94;93540.30;1854525;75;21091;-82
2021/05/24 03:22:11;;;;;;;1.00;0.90;;;;;;;8.10;92.26;93542.82;1865530;76;21028;-82
2021/05/24 03:24:39;;;;;;;1.65;1.30;;;;;;;8.11;92.39;93546.50;1848529;77;21573;-83
2021/05/24 03:27:06;;;;;;;0.93;0.82;;;;;;;8.10;92.64;93557.72;1849720;77;21105;-81
2021/05/24 03:29:32;;;;;;;2.05;0.68;;;;;;;8.11;92.80;93557.91;1860093;76;21502;-83
2021/05/24 03:31:59;;;;;;;24.82;17.25;;;;;;;8.08;92.94;93558.08;1866563;76;21123;-83
2021/05/24 03:34:25;;;;;;;9.28;6.55;;;;;;;8.09;93.14;93561.59;1864177;76;21106;-83
2021/05/24 03:36:51;;;;;;;2.15;1.95;;;;;;;8.10;93.31;93560.42;1849781;77;20889;-83
2021/05/24 03:39:19;;;;;;;5.35;0.95;;;;;;;8.09;93.35;93569.13;1849653;77;20999;-81
2021/05/24 03:41:45;;;;;;;0.60;0.60;;;;;;;8.09;93.57;93576.48;1860576;76;21131;-82
2021/05/24 03:44:12;;;;;;;0.30;0.30;;;;;;;8.08;93.62;93579.74;1859785;76;21758;-83
2021/05/24 03:46:39;;;;;;;0.30;0.30;;;;;;;8.08;93.72;93577.03;1850581;75;21107;-83
2021/05/24 03:49:05;;;;;;;0.53;0.30;;;;;;;8.09;93.77;93594.09;1849668;77;21029;-82
2021/05/24 03:51:32;;;;;;;0.50;0.40;;;;;;;8.08;93.86;93588.45;1860616;77;21530;-82
2021/05/24 03:53:59;;;;;;;1.15;0.85;;;;;;;8.08;93.72;93583.03;1862861;76;20937;-82
2021/05/24 03:56:25;;;;;;;0.80;0.47;;;;;;;8.04;93.12;93583.77;1858387;76;21072;-83
2021/05/24 03:58:51;;;;;;;0.50;0.30;;;;;;;8.09;93.06;93587.31;1849392;76;20992;-84
2021/05/24 04:01:18;;;;;;;1.47;0.70;;;;;;;8.10;93.33;93595.05;1849745;77;21580;-81
2021/05/24 04:03:44;;;;;;;2.45;1.67;;;;;;;8.10;93.30;93591.57;1821957;77;21125;-81
2021/05/24 04:06:14;;;;;;;3.67;2.45;;;;;;;8.10;93.39;93592.92;1826830;78;21073;-83
2021/05/24 04:08:45;;;;;;;3.65;1.20;;;;;;;8.12;93.46;93596.80;1841231;76;21482;-83
2021/05/24 04:11:12;;;;;;;2.12;1.45;;;;;;;8.17;93.08;93602.47;1854487;76;21680;-80
2021/05/24 04:13:41;;;;;;;3.87;1.67;;;;;;;8.15;92.20;93610.17;1864485;76;21024;-83
2021/05/24 04:16:07;;;;;;;1.87;1.25;;;;;;;8.11;91.80;93616.14;1848782;77;21079;-80
2021/05/24 04:18:35;;;;;;;1.92;1.10;;;;;;;8.11;91.07;93618.84;1849593;77;21094;-82
2021/05/24 04:21:04;;;;;;;0.50;0.50;;;;;;;8.11;90.35;93626.97;1860685;76;21649;-82
2021/05/24 04:23:30;;;;;;;4.22;3.72;;;;;;;8.10;90.37;93634.33;1859318;76;20997;-81
2021/05/24 04:25:56;;;;;;;5.28;4.75;;;;;;;8.09;90.76;93639.55;1850955;75;20984;-81
2021/05/24 04:28:23;;;;;;;5.37;4.10;;;;;;;8.10;91.29;93632.97;1858108;77;21028;-80
2021/05/24 04:30:49;;;;;;;7.90;4.50;;;;;;;8.11;91.84;93639.16;1849706;77;21012;-80
2021/05/24 04:33:16;;;;;;;7.42;4.12;;;;;;;8.13;92.38;93644.42;1860569;75;21087;-80
2021/05/24 04:35:42;;;;;;;16.73;7.42;;;;;;;8.17;92.69;93648.52;1857772;76;21514;-80
2021/05/24 04:38:08;;;;;;;12.05;5.62;;;;;;;8.23;92.85;93650.48;1850812;74;21032;-83
2021/05/24 04:40:35;;;;;;;10.10;4.60;;;;;;;8.27;92.86;93655.38;1847280;77;21111;-81
2021/05/24 04:43:02;;;;;;;10.15;4.83;;;;;;;8.31;92.94;93662.16;1853160;77;21019;-80
2021/05/24 04:45:29;;;;;;;5.78;2.62;;;;;;;8.33;92.63;93655.03;1862168;76;21092;-82
2021/05/24 04:47:56;;;;;;;5.28;2.60;;;;;;;8.31;92.37;93658.09;1857342;76;21100;-80
2021/05/24 04:50:22;;;;;;;4.25;2.60;;;;;;;8.32;92.15;93670.51;1852078;75;20967;-82
2021/05/24 04:52:48;;;;;;;4.80;2.42;;;;;;;8.38;92.50;93671.73;1856981;77;21530;-80
2021/05/24 04:55:16;;;;;;;3.55;2.22;;;;;;;8.44;92.37;93678.38;1849387;77;21087;-81
2021/05/24 04:57:42;;;;;;;3.80;2.02;;;;;;;8.51;92.09;93687.92;1864506;76;21041;-81
2021/05/24 05:00:10;;;;;;;3.47;1.52;;;;;;;8.55;91.55;93698.80;1866455;75;21044;-80
2021/05/24 05:02:37;;;;;;;2.15;1.65;;;;;;;8.56;91.13;93692.21;1859129;76;21055;-81
2021/05/24 05:05:05;;;;;;;2.52;1.80;;;;;;;8.55;90.66;93688.53;1848189;77;21639;-82
2021/05/24 05:07:34;;;;;;;2.22;2.05;;;;;;;8.53;90.81;93698.37;1848078;76;21063;-81
2021/05/24 05:10:05;;;;;;;1.70;1.60;;;;;;;8.50;90.86;93692.38;1864505;75;21383;-81
2021/05/24 05:12:29;;;;;;;1.42;1.02;;;;;;;8.48;91.07;93694.09;1863547;75;21052;-82
2021/05/24 05:14:57;;;;;;;2.05;1.65;;;;;;;8.48;90.97;93701.44;1857027;76;21692;-82
2021/05/24 05:17:25;;;;;;;2.52;1.60;;;;;;;8.47;90.55;93704.73;1848818;74;21059;-80
2021/05/24 05:19:51;;;;;;;1.92;1.00;;;;;;;8.43;90.49;93705.28;1851529;76;21044;-79
2021/05/24 05:22:18;;;;;;;1.42;1.15;;;;;;;8.40;90.37;93710.09;1856854;77;21111;-81
2021/05/24 05:24:44;;;;;;;1.80;1.40;;;;;;;8.40;90.38;93718.22;1861139;76;21440;-82
2021/05/24 05:27:11;;;;;;;2.22;1.47;;;;;;;8.42;90.29;93722.67;1856187;76;21068;-81
2021/05/24 05:29:37;;;;;;;1.65;1.15;;;;;;;8.47;90.34;93722.34;1847629;76;21123;-80
2021/05/24 05:32:04;;;;;;;2.87;1.70;;;;;;;8.48;90.12;93722.55;1850551;76;20977;-80
2021/05/24 05:34:31;;;;;;;4.05;2.52;;;;;;;8.49;90.21;93738.22;1867010;76;21115;-81
2021/05/24 05:36:57;;;;;;;1.45;1.35;;;;;;;8.48;90.31;93736.09;1851566;76;21613;-81
2021/05/24 05:39:24;;;;;;;1.77;1.50;;;;;;;8.51;90.62;93742.70;1849327;77;20984;-79
2021/05/24 05:41:50;;;;;;;1.57;1.47;;;;;;;8.54;90.86;93745.23;1855740;75;21598;-82
2021/05/24 05:44:16;;;;;;;3.90;3.30;;;;;;;8.56;90.81;93747.00;1865244;76;21056;-79
2021/05/24 05:46:43;;;;;;;6.67;5.75;;;;;;;8.57;90.86;93750.68;1865198;76;21361;-82
2021/05/24 05:49:09;;;;;;;1.85;1.70;;;;;;;8.58;90.91;93756.91;1848947;76;21072;-82
2021/05/24 05:51:35;;;;;;;3.00;1.45;;;;;;;8.62;90.99;93759.07;1847349;77;21715;-80
2021/05/24 05:54:03;;;;;;;0.60;0.60;;;;;;;8.64;90.34;93758.10;1854684;76;21545;-82
2021/05/24 05:56:29;;;;;;;1.42;1.32;;;;;;;8.61;89.36;93765.04;1861661;76;21056;-82
2021/05/24 05:58:56;;;;;;;2.52;1.80;;;;;;;8.60;89.46;93764.84;1848001;77;21608;-80
2021/05/24 06:01:23;;;;;;;0.80;0.80;;;;;;;8.62;89.74;93767.98;1848809;75;21080;-81
2021/05/24 06:03:49;;;;;;;1.20;1.10;;;;;;;8.59;88.15;93774.72;1851062;77;21076;-80
2021/05/24 06:06:16;;;;;;;1.87;1.67;;;;;;;8.54;88.88;93773.14;1855102;76;21067;-81
2021/05/24 06:08:42;;;;;;;1.37;1.10;;;;;;;8.48;89.56;93772.68;1860292;76;21043;-82
2021/05/24 06:11:09;;;;;;;1.37;0.98;;;;;;;8.48;90.15;93776.75;1846731;75;21080;-81
2021/05/24 06:13:35;;;;;;;1.82;1.40;;;;;;;8.52;90.81;93784.91;1854824;77;21359;-80
2021/05/24 06:16:01;;;;;;;0.70;0.70;;;;;;;8.61;90.95;93779.17;1848605;77;21107;-82
2021/05/24 06:18:28;;;;;;;1.40;1.30;;;;;;;8.70;91.01;93779.08;1856531;76;21135;-81
2021/05/24 06:20:54;;;;;;;2.62;1.50;;;;;;;8.80;90.44;93780.89;1859330;76;21052;-80
2021/05/24 06:23:21;;;;;;;3.47;1.75;;;;;;;8.89;90.05;93782.73;1847791;74;21095;-82
2021/05/24 06:25:48;;;;;;;0.70;0.70;;;;;;;8.95;89.27;93786.08;1855289;77;21107;-80
2021/05/24 06:28:14;;;;;;;0.68;0.53;;;;;;;9.00;87.79;93784.37;1850059;77;21115;-81
2021/05/24 06:30:41;;;;;;;1.17;0.80;;;;;;;9.02;87.20;93785.92;1857812;76;21044;-79
2021/05/24 06:33:07;;;;;;;1.20;0.82;;;;;;;9.05;86.62;93786.53;1860137;76;21005;-79
2021/05/24 06:35:34;;;;;;;1.95;1.15;;;;;;;9.09;86.67;93790.82;1822454;75;21075;-82
2021/05/24 06:38:00;;;;;;;2.17;1.40;;;;;;;9.15;86.87;93795.33;1848035;77;21684;-82
2021/05/24 06:40:27;;;;;;;2.87;1.47;;;;;;;9.14;86.70;93801.89;1863036;76;21107;-80
2021/05/24 06:42:54;;;;;;;1.40;0.98;;;;;;;9.10;86.16;93808.67;1864747;76;21074;-80
2021/05/24 06:45:20;;;;;;;3.45;1.20;;;;;;;9.10;86.42;93805.96;1857782;76;21055;-81
2021/05/24 06:47:47;;;;;;;2.58;1.00;;;;;;;9.13;85.18;93812.55;1848347;77;21163;-80
2021/05/24 06:50:14;;;;;;;1.75;1.45;;;;;;;9.16;85.79;93807.73;1848836;77;21052;-81
2021/05/24 06:52:47;;;;;;;4.47;2.15;;;;;;;9.20;84.90;93813.97;1864793;76;21091;-83
2021/05/24 06:55:11;;;;;;;2.33;2.10;;;;;;;9.28;85.65;93808.02;1824309;77;21613;-79
2021/05/24 06:57:38;;;;;;;1.07;0.98;;;;;;;9.37;85.00;93811.19;1852223;77;21061;-80
2021/05/24 07:00:08;;;;;;;1.35;0.90;;;;;;;9.53;84.90;93806.83;1859215;77;21099;-80
2021/05/24 07:02:35;;;;;;;3.33;1.20;;;;;;;9.71;84.47;93799.56;1839475;76;21641;-79
2021/05/24 07:05:01;;;;;;;1.45;0.80;;;;;;;9.89;83.76;93805.06;1859243;77;21064;-82
2021/05/24 07:07:30;;;;;;;0.70;0.70;;;;;;;10.05;82.55;93803.41;1831078;75;21412;-80
2021/05/24 07:09:57;;;;;;;1.50;0.70;;;;;;;10.20;80.98;93801.73;1817311;77;21085;-80
2021/05/24 07:12:23;;;;;;;0.53;0.40;;;;;;;10.35;79.68;93804.52;1799510;78;21090;-78
2021/05/24 07:14:53;;;;;;;0.72;0.60;;;;;;;10.49;78.72;93805.13;1786548;77;21700;-82
2021/05/24 07:17:18;;;;;;;2.75;0.80;;;;;;;10.64;79.74;93819.75;1847544;77;21024;-81
2021/05/24 07:19:46;;;;;;;0.50;0.50;;;;;;;10.85;78.92;93819.58;1855071;77;21586;-81
2021/05/24 07:22:13;;;;;;;1.80;1.12;;;;;;;11.05;78.27;93821.34;1854521;77;21115;-84
2021/05/24 07:24:39;;;;;;;3.22;1.72;;;;;;;11.35;75.93;93822.32;1861675;76;21045;-81
2021/05/24 07:27:06;;;;;;;1.30;0.82;;;;;;;11.67;73.85;93815.48;1865717;76;21610;-82
2021/05/24 07:29:34;;;;;;;1.40;0.60;;;;;;;12.12;72.19;93808.97;1865333;76;21585;-79
2021/05/24 07:32:00;;;;;;;1.67;0.72;;;;;;;12.55;69.04;93811.50;1848427;76;21096;-82
2021/05/24 07:34:26;;;;;;;1.55;0.70;;;;;;;12.94;68.82;93807.76;1847327;77;21016;-81
2021/05/24 07:36:53;;;;;;;1.55;0.80;;;;;;;13.38;70.56;93805.70;1856170;76;21600;-82
2021/05/24 07:39:19;;;;;;;1.75;0.82;;;;;;;13.79;66.10;93816.64;1860643;76;21072;-81
2021/05/24 07:41:46;;;;;;;1.02;0.80;;;;;;;14.06;66.94;93815.98;1846326;77;21447;-83
2021/05/24 07:44:13;;;;;;;0.62;0.62;;;;;;;14.37;66.59;93816.02;1848086;77;21067;-82
2021/05/24 07:46:40;;;;;;;1.12;0.70;;;;;;;14.62;65.55;93808.30;1862105;76;20992;-84
2021/05/24 07:49:07;;;;;;;3.22;0.82;;;;;;;14.85;63.34;93806.83;1855862;76;21659;-83
2021/05/24 07:51:33;;;;;;;1.15;1.00;;;;;;;14.92;58.15;93813.58;1847461;77;21056;-82
2021/05/24 07:54:00;;;;;;;1.37;0.60;;;;;;;14.78;56.55;93812.60;1848563;75;21091;-84
2021/05/24 07:56:28;;;;;;;3.85;3.55;;;;;;;14.67;58.00;93820.75;1864460;76;21060;-84
2021/05/24 07:58:55;;;;;;;0.98;0.93;;;;;;;14.72;59.92;93825.19;1864979;76;21099;-81
2021/05/24 08:01:21;;;;;;;0.85;0.85;;;;;;;14.77;59.35;93825.31;1853428;76;21728;-82
2021/05/24 08:03:49;;;;;;;2.42;0.70;;;;;;;14.84;59.32;93827.19;1850348;76;21063;-82
2021/05/24 08:06:15;;;;;;;1.85;1.20;;;;;;;14.94;59.56;93820.80;1856494;74;21064;-81
2021/05/24 08:08:42;;;;;;;3.15;0.50;;;;;;;15.04;58.98;93820.65;1857792;77;21047;-84
2021/05/24 08:11:12;;;;;;;0.60;0.45;;;;;;;15.10;59.14;93815.47;1814024;77;21073;-85
2021/05/24 08:13:38;;;;;;;1.47;1.37;;;;;;;15.10;58.69;93808.62;1824524;78;21129;-87
2021/05/24 08:16:05;;;;;;;3.05;1.27;;;;;;;15.03;57.64;93810.86;1843058;75;21054;-84
2021/05/24 08:18:33;;;;;;;0.93;0.70;;;;;;;15.00;57.97;93813.05;1848731;77;21645;-83
2021/05/24 08:20:59;;;;;;;1.17;0.70;;;;;;;15.10;57.11;93820.94;1859177;76;21111;-82
2021/05/24 08:23:26;;;;;;;1.47;1.02;;;;;;;15.21;56.72;93822.16;1858070;76;21068;-82
2021/05/24 08:25:54;;;;;;;2.87;2.60;;;;;;;15.29;57.54;93821.63;1848003;76;21834;-84
2021/05/24 08:28:21;;;;;;;2.60;2.30;;;;;;;15.38;56.73;93829.91;1851026;76;21080;-81
2021/05/24 08:30:47;;;;;;;1.37;1.27;;;;;;;15.33;56.15;93834.50;1851140;77;21056;-86
2021/05/24 08:33:13;;;;;;;1.45;1.35;;;;;;;15.16;55.43;93843.95;1853435;75;21048;-83
2021/05/24 08:35:40;;;;;;;1.75;1.15;;;;;;;14.99;55.77;93840.27;1864475;76;21546;-87
2021/05/24 08:38:06;;;;;;;0.68;0.60;;;;;;;14.95;54.84;93838.17;1863796;76;21091;-86
2021/05/24 08:40:33;;;;;;;1.60;0.50;;;;;;;15.00;53.33;93834.19;1855220;76;20966;-82
2021/05/24 08:43:01;;;;;;;4.40;3.55;;;;;;;14.94;51.30;93822.17;1851816;75;21095;-85
2021/05/24 08:45:30;;;;;;;2.42;1.52;;;;;;;14.84;54.95;93822.48;1850445;77;21128;-84
2021/05/24 08:47:57;;;;;;;2.20;1.40;;;;;;;14.93;55.97;93817.86;1851128;77;21621;-84
2021/05/24 08:50:23;;;;;;;0.60;0.60;;;;;;;15.13;57.77;93822.09;1864548;76;21573;-86
2021/05/24 08:52:49;;;;;;;0.40;0.33;;;;;;;15.20;54.75;93817.28;1853457;76;21040;-83
2021/05/24 08:55:16;;;;;;;0.50;0.50;;;;;;;15.10;53.04;93818.20;1851499;74;21051;-88
2021/05/24 08:57:42;;;;;;;0.33;0.33;;;;;;;14.93;52.47;93818.66;1851923;76;21629;-84
2021/05/24 09:00:12;;;;;;;0.20;0.20;;;;;;;14.65;52.30;93814.92;1848956;77;21058;-85
2021/05/24 09:02:41;;;;;;;0.47;0.35;;;;;;;14.47;54.12;93824.09;1867910;76;21146;-79
2021/05/24 09:05:09;;;;;;;0.57;0.57;;;;;;;14.54;55.67;93826.00;1850438;76;21059;-82
2021/05/24 09:07:53;;;;;;;0.60;0.40;;;;;;;14.68;54.73;93833.27;1847300;77;21043;-79
2021/05/24 09:10:22;;;;;;;7.78;0.70;;;;;;;14.81;53.82;93826.04;1854054;76;21063;-80
2021/05/24 09:12:49;;;;;;;1.92;0.85;;;;;;;14.92;52.38;93825.30;1859899;76;21044;-80
2021/05/24 09:15:16;;;;;;;;;;;;;;;;;;;;;
2021/05/24 09:17:54;;;;;;;0.65;0.45;;;;;;;14.99;51.86;93818.95;1812169;78;21111;-86
2021/05/24 09:20:31;;;;;;;1.10;0.50;;;;;;;15.00;51.43;93807.58;1855183;76;21566;-84
2021/05/24 09:23:24;;;;;;;1.95;1.32;;;;;;;15.00;50.08;93808.94;1851083;76;21035;-80
2021/05/24 09:26:05;;;;;;;1.80;1.20;;;;;;;14.95;51.93;93799.84;1845925;75;21059;-80
2021/05/24 09:28:49;;;;;;;0.55;0.42;;;;;;;14.95;53.66;93803.17;1854227;76;21111;-81
2021/05/24 09:31:25;;;;;;;2.00;0.50;;;;;;;14.97;52.22;93811.73;1856834;76;21055;-82
2021/05/24 09:33:53;;;;;;;0.40;0.40;;;;;;;14.96;53.70;93807.45;1846362;77;21099;-82
2021/05/24 09:36:22;;;;;;;0.98;0.82;;;;;;;14.97;53.63;93819.95;1845848;77;21059;-80
2021/05/24 09:38:54;;;;;;;1.40;0.60;;;;;;;15.02;54.33;93817.53;1864721;76;21704;-83
2021/05/24 09:41:21;;;;;;;3.60;0.40;;;;;;;15.02;53.66;93805.21;1852735;76;21139;-79
2021/05/24 09:43:50;;;;;;;0.90;0.60;;;;;;;14.99;53.53;93801.92;1848541;77;21056;-80
2021/05/24 09:46:25;;;;;;;1.02;0.78;;;;;;;14.92;53.28;93781.48;1854210;76;21080;-82
2021/05/24 09:48:54;;;;;;;1.17;0.70;;;;;;;14.91;53.75;93776.44;1862466;76;21156;-80
2021/05/24 09:51:23;;;;;;;1.45;1.00;;;;;;;14.88;54.22;93765.72;1848049;77;21040;-81
2021/05/24 09:54:09;;;;;;;1.35;0.60;;;;;;;14.93;55.41;93776.78;1847852;76;21610;-82
2021/05/24 09:56:39;;;;;;;0.53;0.45;;;;;;;15.05;53.43;93791.30;1863665;75;21047;-81
2021/05/24 09:59:12;;;;;;;0.82;0.62;;;;;;;15.12;50.69;93780.23;1853472;76;21071;-81
2021/05/24 10:01:47;;;;;;;0.70;0.70;;;;;;;15.16;50.59;93782.32;1847576;77;21102;-84
2021/05/24 10:04:15;;;;;;;2.05;0.80;;;;;;;15.22;53.26;93782.02;1852296;75;21059;-82
2021/05/24 10:06:42;;;;;;;1.70;0.88;;;;;;;15.20;52.33;93791.25;1869426;76;21108;-81
2021/05/24 10:09:10;;;;;;;0.95;0.47;;;;;;;15.05;51.00;93796.17;1848416;77;20961;-82
2021/05/24 10:11:43;;;;;;;4.37;1.40;;;;;;;15.00;51.35;93808.17;1848951;76;21079;-81
2021/05/24 10:14:13;;;;;;;0.80;0.80;;;;;;;15.06;52.43;93801.82;1859311;76;20961;-80
2021/05/24 10:16:44;;;;;;;2.92;1.05;;;;;;;15.22;51.47;93808.63;1865602;76;21048;-81
2021/05/24 10:19:13;;;;;;;0.65;0.53;;;;;;;15.32;49.62;93814.55;1862140;76;21080;-82
2021/05/24 10:21:42;;;;;;;12.00;1.20;;;;;;;15.36;50.03;93798.05;1851127;77;21091;-88
2021/05/24 10:24:09;;;;;;;1.55;1.22;;;;;;;15.42;51.08;93795.00;1807938;78;21036;-82
2021/05/24 10:26:37;;;;;;;0.90;0.90;;;;;;;15.45;51.67;93803.77;1844092;76;21661;-84
2021/05/24 10:29:04;;;;;;;4.78;0.70;;;;;;;15.40;51.98;93796.80;1858360;75;21043;-81
2021/05/24 10:31:32;;;;;;;2.65;0.60;;;;;;;15.37;53.38;93807.22;1865065;76;21142;-79
2021/05/24 10:34:24;;;;;;;1.60;0.80;;;;;;;15.31;52.78;93803.42;1863353;76;21056;-81
2021/05/24 10:37:17;;;;;;;1.50;0.93;;;;;;;15.28;53.58;93809.72;1846876;75;21640;-81
2021/05/24 10:42:14;;;;;;;0.98;0.57;;;;;;;15.20;53.54;93806.32;1825072;78;20992;-81
2021/05/24 10:44:45;;;;;;;1.52;0.62;;;;;;;15.18;52.39;93803.20;1852050;76;21274;-79
2021/05/24 10:47:25;;;;;;;2.75;0.57;;;;;;;15.20;51.58;93796.73;1827684;76;21138;-79
2021/05/24 10:50:05;;;;;;;1.32;0.40;;;;;;;15.34;51.75;93800.42;1831148;77;21076;-79
2021/05/24 10:52:39;;;;;;;1.20;0.88;;;;;;;15.59;52.74;93810.98;1825657;76;21330;-79
2021/05/24 10:55:31;;;;;;;1.72;0.60;;;;;;;15.82;50.57;93801.40;1863391;76;21068;-80
2021/05/24 10:58:03;;;;;;;0.78;0.40;;;;;;;15.86;48.96;93802.70;1847233;77;21091;-78
2021/05/24 11:00:51;;;;;;;0.68;0.65;;;;;;;15.77;48.14;93799.15;1847431;76;21672;-81
2021/05/24 11:03:18;;;;;;;2.10;0.45;;;;;;;15.64;48.21;93797.56;1864084;76;21145;-82
2021/05/24 11:06:10;;;;;;;1.07;0.78;;;;;;;15.54;47.93;93778.76;1852256;76;21638;-80
2021/05/24 11:08:42;;;;;;;1.47;0.40;;;;;;;15.47;49.21;93784.95;1852412;74;21095;-82
2021/05/24 11:11:25;;;;;;;1.70;0.50;;;;;;;15.49;50.62;93782.55;1856861;75;21060;-80
2021/05/24 11:14:05;;;;;;;2.27;0.50;;;;;;;15.54;51.12;93777.98;1806340;77;21094;-82
2021/05/24 11:16:33;;;;;;;2.45;0.68;;;;;;;15.66;50.84;93780.74;1847259;77;21064;-80
2021/05/24 11:19:05;;;;;;;1.15;0.55;;;;;;;15.78;51.59;93769.16;1864204;76;21111;-80
2021/05/24 11:21:32;;;;;;;0.70;0.50;;;;;;;15.91;50.93;93763.83;1869048;76;21099;-80
2021/05/24 11:24:06;;;;;;;0.65;0.50;;;;;;;16.06;50.41;93762.95;1846249;76;21070;-80
2021/05/24 11:26:36;;;;;;;1.77;0.47;;;;;;;16.14;48.05;93773.39;1848022;76;21424;-81
2021/05/24 11:29:16;;;;;;;2.05;0.75;;;;;;;16.13;47.09;93763.59;1852630;76;21075;-79
2021/05/24 11:31:49;;;;;;;1.10;0.42;;;;;;;16.07;48.73;93755.70;1828075;76;21086;-83
2021/05/24 11:34:36;;;;;;;0.45;0.40;;;;;;;16.09;46.47;93749.17;1847475;76;21609;-80
2021/05/24 11:37:08;;;;;;;2.98;1.77;;;;;;;16.20;48.59;93741.50;1865414;76;21601;-80
2021/05/24 11:39:48;;;;;;;1.32;1.20;;;;;;;16.25;46.90;93736.91;1847497;76;21154;-82
2021/05/24 11:42:32;;;;;;;1.82;0.55;;;;;;;16.26;47.12;93742.56;1848264;77;21019;-82
2021/05/24 11:45:01;;;;;;;2.65;0.85;;;;;;;16.26;46.65;93736.31;1860668;76;21139;-85
2021/05/24 11:47:27;;;;;;;0.60;0.60;;;;;;;16.26;46.84;93735.70;1857227;76;21028;-81